Time;durP1;ratioP1;P1;durP2;ratioP2;P2;SDS_P1;SDS_P2;PMS_P1;PMS_P2;Temp;Humidity;BMP_temperature;BMP_pressure;BME280_temperature;BME280_humidity;BME280_pressure;Samples;Min_cycle;Max_cycle;Signal;HPM_P1;HPM_P2
2021/11/18 00:01:26;;;;;;;38.43;20.47;;;;;;;;;;768600;181;919120;-64
2021/11/18 00:03:52;;;;;;;31.60;18.50;;;;;;;;;;776701;180;919806;-64
2021/11/18 00:06:18;;;;;;;34.57;19.50;;;;;;;;;;767789;180;918610;-64
2021/11/18 00:08:44;;;;;;;38.57;20.37;;;;;;;;;;766350;179;919472;-63
2021/11/18 00:11:10;;;;;;;38.63;19.93;;;;;;;;;;769193;180;920487;-64
2021/11/18 00:13:36;;;;;;;36.97;18.40;;;;;;;;;;772518;180;936065;-64
2021/11/18 00:16:01;;;;;;;40.87;21.20;;;;;;;;;;771105;179;920083;-63
2021/11/18 00:18:27;;;;;;;34.30;21.10;;;;;;;;;;770826;180;919200;-63
2021/11/18 00:20:54;;;;;;;39.13;22.25;;;;;;;;;;768103;180;918700;-64
2021/11/18 00:23:20;;;;;;;35.87;19.83;;;;;;;;;;768992;180;923940;-64
2021/11/18 00:25:45;;;;;;;40.17;20.63;;;;;;;;;;771966;180;919622;-63
2021/11/18 00:28:11;;;;;;;38.73;20.93;;;;;;;;;;770157;183;918983;-64
2021/11/18 00:30:37;;;;;;;33.80;21.00;;;;;;;;;;766829;180;920105;-63
2021/11/18 00:33:03;;;;;;;33.80;19.43;;;;;;;;;;767283;180;919440;-64
2021/11/18 00:35:29;;;;;;;39.10;20.87;;;;;;;;;;776902;180;918258;-64
2021/11/18 00:37:55;;;;;;;36.33;19.07;;;;;;;;;;771882;180;919679;-63
2021/11/18 00:40:21;;;;;;;34.93;20.20;;;;;;;;;;770087;180;919361;-63
2021/11/18 00:42:47;;;;;;;36.67;20.07;;;;;;;;;;771522;180;918885;-63
2021/11/18 00:45:12;;;;;;;35.77;19.10;;;;;;;;;;768134;180;922038;-62
2021/11/18 00:47:38;;;;;;;39.27;20.57;;;;;;;;;;769557;180;919624;-63
2021/11/18 00:50:05;;;;;;;31.43;19.63;;;;;;;;;;774221;180;918762;-63
2021/11/18 00:52:30;;;;;;;35.50;20.00;;;;;;;;;;769174;180;919601;-63
2021/11/18 00:54:56;;;;;;;36.23;18.33;;;;;;;;;;765961;180;920415;-63
2021/11/18 00:57:22;;;;;;;31.12;18.90;;;;;;;;;;765922;181;920601;-62
2021/11/18 00:59:48;;;;;;;42.00;19.67;;;;;;;;;;775916;180;910718;-63
2021/11/18 01:02:14;;;;;;;29.67;19.70;;;;;;;;;;766419;180;918965;-63
2021/11/18 01:04:40;;;;;;;36.73;18.70;;;;;;;;;;767003;180;917112;-63
2021/11/18 01:07:06;;;;;;;32.57;17.90;;;;;;;;;;768802;181;921902;-62
2021/11/18 01:09:31;;;;;;;33.95;18.33;;;;;;;;;;768492;180;921180;-63
2021/11/18 01:11:57;;;;;;;32.60;18.93;;;;;;;;;;774777;178;916951;-62
2021/11/18 01:14:23;;;;;;;32.33;19.20;;;;;;;;;;771607;179;915826;-63
2021/11/18 01:16:49;;;;;;;26.10;16.30;;;;;;;;;;771244;180;918177;-62
2021/11/18 01:19:15;;;;;;;25.00;17.17;;;;;;;;;;769616;179;923280;-64
2021/11/18 01:21:41;;;;;;;34.80;18.57;;;;;;;;;;769553;180;913889;-63
2021/11/18 01:24:06;;;;;;;29.80;18.30;;;;;;;;;;771945;180;923944;-64
2021/11/18 01:26:32;;;;;;;26.73;17.37;;;;;;;;;;764646;180;919716;-63
2021/11/18 01:29:00;;;;;;;28.90;16.03;;;;;;;;;;770632;180;914407;-64
2021/11/18 01:31:24;;;;;;;30.20;18.50;;;;;;;;;;775109;180;918829;-63
2021/11/18 01:33:50;;;;;;;26.30;16.37;;;;;;;;;;771992;180;919430;-64
2021/11/18 01:36:16;;;;;;;30.20;18.35;;;;;;;;;;768087;180;1021357;-64
2021/11/18 01:38:42;;;;;;;29.43;17.57;;;;;;;;;;770002;181;919406;-64
2021/11/18 01:41:08;;;;;;;24.30;15.73;;;;;;;;;;768378;180;918990;-63
2021/11/18 01:43:35;;;;;;;31.77;17.23;;;;;;;;;;772283;179;919474;-65
2021/11/18 01:46:00;;;;;;;31.37;19.20;;;;;;;;;;768077;179;918967;-63
2021/11/18 01:48:26;;;;;;;25.57;17.00;;;;;;;;;;773009;180;921507;-64
2021/11/18 01:50:52;;;;;;;27.53;17.13;;;;;;;;;;768690;180;919550;-63
2021/11/18 01:53:19;;;;;;;32.77;18.77;;;;;;;;;;765215;180;924673;-63
2021/11/18 01:55:45;;;;;;;27.93;18.20;;;;;;;;;;773702;180;918544;-63
2021/11/18 01:58:10;;;;;;;32.33;19.80;;;;;;;;;;771368;179;918543;-66
2021/11/18 02:00:37;;;;;;;28.07;16.57;;;;;;;;;;772755;179;919792;-64
2021/11/18 02:03:03;;;;;;;23.93;16.67;;;;;;;;;;772870;180;919484;-63
2021/11/18 02:05:29;;;;;;;35.20;18.83;;;;;;;;;;766233;180;919825;-63
2021/11/18 02:07:55;;;;;;;28.00;15.60;;;;;;;;;;770871;180;919345;-64
2021/11/18 02:10:21;;;;;;;26.63;17.07;;;;;;;;;;772708;180;919535;-63
2021/11/18 02:12:46;;;;;;;30.30;16.70;;;;;;;;;;770969;180;1223003;-64
2021/11/18 02:15:17;;;;;;;33.63;16.77;;;;;;;;;;774313;180;915320;-64
2021/11/18 02:17:43;;;;;;;23.67;16.50;;;;;;;;;;762894;181;918953;-64
2021/11/18 02:20:09;;;;;;;34.83;18.20;;;;;;;;;;773101;179;916059;-63
2021/11/18 02:22:35;;;;;;;28.03;16.87;;;;;;;;;;769246;179;919154;-64
2021/11/18 02:25:01;;;;;;;33.00;18.50;;;;;;;;;;770463;180;920534;-63
2021/11/18 02:27:28;;;;;;;28.33;17.87;;;;;;;;;;777402;180;921024;-63
2021/11/18 02:29:53;;;;;;;28.83;17.03;;;;;;;;;;780257;179;919869;-64
2021/11/18 02:32:19;;;;;;;26.53;15.87;;;;;;;;;;769660;180;919709;-65
2021/11/18 02:34:45;;;;;;;28.05;17.17;;;;;;;;;;768908;180;918897;-63
2021/11/18 02:37:11;;;;;;;32.97;20.03;;;;;;;;;;774748;180;919134;-64
2021/11/18 02:39:37;;;;;;;30.20;18.20;;;;;;;;;;770934;180;919429;-64
2021/11/18 02:42:03;;;;;;;29.97;19.10;;;;;;;;;;767366;180;945524;-63
2021/11/18 02:44:29;;;;;;;26.20;17.17;;;;;;;;;;773890;179;920017;-63
2021/11/18 02:46:54;;;;;;;30.87;17.53;;;;;;;;;;768939;180;920234;-63
2021/11/18 02:49:20;;;;;;;27.30;17.60;;;;;;;;;;761160;181;1455366;-63
2021/11/18 02:51:46;;;;;;;25.73;15.90;;;;;;;;;;774252;180;920699;-63
2021/11/18 02:54:12;;;;;;;25.27;15.67;;;;;;;;;;769199;180;913285;-63
2021/11/18 02:56:38;;;;;;;29.47;17.50;;;;;;;;;;768511;180;918523;-63
2021/11/18 02:59:04;;;;;;;27.80;17.63;;;;;;;;;;763870;182;940585;-64
2021/11/18 03:01:30;;;;;;;28.00;17.43;;;;;;;;;;775654;180;920931;-63
2021/11/18 03:03:56;;;;;;;26.60;16.93;;;;;;;;;;770543;179;942204;-64
2021/11/18 03:06:22;;;;;;;26.00;15.93;;;;;;;;;;767672;180;919227;-64
2021/11/18 03:08:48;;;;;;;31.13;17.27;;;;;;;;;;774647;180;921390;-64
2021/11/18 03:11:13;;;;;;;31.70;18.13;;;;;;;;;;765129;180;911279;-63
2021/11/18 03:13:39;;;;;;;29.93;16.53;;;;;;;;;;767240;180;917152;-63
2021/11/18 03:16:05;;;;;;;30.33;17.70;;;;;;;;;;771290;180;925123;-63
2021/11/18 03:18:31;;;;;;;29.10;18.27;;;;;;;;;;770380;180;915884;-63
2021/11/18 03:20:57;;;;;;;28.50;18.62;;;;;;;;;;770524;180;913321;-64
2021/11/18 03:23:23;;;;;;;35.53;19.80;;;;;;;;;;767056;180;920810;-62
2021/11/18 03:25:49;;;;;;;32.73;21.47;;;;;;;;;;761394;181;920445;-65
2021/11/18 03:28:14;;;;;;;32.07;20.00;;;;;;;;;;768964;181;919267;-64
2021/11/18 03:30:40;;;;;;;27.67;17.90;;;;;;;;;;767710;180;918130;-64
2021/11/18 03:33:06;;;;;;;29.40;18.77;;;;;;;;;;774111;178;918444;-63
2021/11/18 03:35:32;;;;;;;37.00;20.07;;;;;;;;;;770095;179;1021081;-64
2021/11/18 03:38:00;;;;;;;30.07;17.70;;;;;;;;;;767606;179;915440;-63
2021/11/18 03:40:24;;;;;;;35.43;19.50;;;;;;;;;;777442;179;917857;-64
2021/11/18 03:42:50;;;;;;;25.63;16.63;;;;;;;;;;774524;180;921141;-63
2021/11/18 03:45:15;;;;;;;33.20;17.90;;;;;;;;;;769836;180;916974;-64
2021/11/18 03:47:42;;;;;;;28.92;17.80;;;;;;;;;;769345;181;920442;-62
2021/11/18 03:50:08;;;;;;;26.60;16.20;;;;;;;;;;764157;183;917318;-64
2021/11/18 03:52:34;;;;;;;29.37;17.80;;;;;;;;;;768203;179;915705;-63
2021/11/18 03:54:59;;;;;;;28.70;17.90;;;;;;;;;;769564;180;918590;-63
2021/11/18 03:57:25;;;;;;;28.80;18.17;;;;;;;;;;773521;180;919891;-63
2021/11/18 03:59:51;;;;;;;27.33;17.57;;;;;;;;;;772032;180;917160;-63
2021/11/18 04:02:17;;;;;;;28.48;17.35;;;;;;;;;;773452;180;914382;-64
2021/11/18 04:04:43;;;;;;;28.80;17.37;;;;;;;;;;773240;180;916489;-64
2021/11/18 04:07:10;;;;;;;27.27;17.60;;;;;;;;;;765423;180;916442;-64
2021/11/18 04:09:34;;;;;;;25.77;16.47;;;;;;;;;;768982;180;915369;-64
2021/11/18 04:12:00;;;;;;;25.30;16.03;;;;;;;;;;770801;180;917239;-64
2021/11/18 04:14:26;;;;;;;24.83;15.80;;;;;;;;;;768770;180;919865;-63
2021/11/18 04:16:52;;;;;;;23.77;15.40;;;;;;;;;;765227;180;919098;-63
2021/11/18 04:19:18;;;;;;;28.30;16.03;;;;;;;;;;762140;180;940541;-63
2021/11/18 04:21:44;;;;;;;22.00;15.67;;;;;;;;;;777117;180;916514;-63
2021/11/18 04:24:10;;;;;;;24.50;15.33;;;;;;;;;;771782;180;916012;-65
2021/11/18 04:26:35;;;;;;;23.73;15.50;;;;;;;;;;769659;180;921222;-64
2021/11/18 04:29:01;;;;;;;25.00;16.53;;;;;;;;;;776022;179;916084;-63
2021/11/18 04:31:30;;;;;;;23.27;15.80;;;;;;;;;;764909;180;915899;-64
2021/11/18 04:33:53;;;;;;;28.92;17.12;;;;;;;;;;769264;180;1021962;-64
2021/11/18 04:36:19;;;;;;;25.90;15.30;;;;;;;;;;772456;179;914353;-64
2021/11/18 04:38:45;;;;;;;23.17;15.80;;;;;;;;;;763969;180;920628;-65
2021/11/18 04:41:11;;;;;;;25.33;16.33;;;;;;;;;;766035;180;919745;-64
2021/11/18 04:43:38;;;;;;;25.20;15.97;;;;;;;;;;771225;180;919564;-64
2021/11/18 04:46:02;;;;;;;27.10;16.90;;;;;;;;;;777533;180;915556;-64
2021/11/18 04:48:28;;;;;;;22.30;15.50;;;;;;;;;;766340;179;915374;-64
2021/11/18 04:50:54;;;;;;;26.27;17.90;;;;;;;;;;772844;180;919158;-64
2021/11/18 04:53:20;;;;;;;24.90;15.50;;;;;;;;;;773272;179;915189;-64
2021/11/18 04:55:46;;;;;;;26.50;16.20;;;;;;;;;;770062;181;919096;-64
2021/11/18 04:58:11;;;;;;;22.55;15.02;;;;;;;;;;769577;180;919093;-64
2021/11/18 05:00:38;;;;;;;26.10;17.80;;;;;;;;;;772640;180;919046;-63
2021/11/18 05:03:04;;;;;;;24.70;15.23;;;;;;;;;;772584;180;918985;-64
2021/11/18 05:05:30;;;;;;;26.23;15.80;;;;;;;;;;768444;180;919684;-64
2021/11/18 05:07:56;;;;;;;30.03;18.47;;;;;;;;;;764886;180;983988;-63
2021/11/18 05:10:21;;;;;;;25.27;17.07;;;;;;;;;;770323;180;942093;-64
2021/11/18 05:12:47;;;;;;;22.23;14.43;;;;;;;;;;763688;180;919336;-64
2021/11/18 05:15:14;;;;;;;23.10;14.57;;;;;;;;;;769532;181;914916;-64
2021/11/18 05:17:39;;;;;;;24.67;17.53;;;;;;;;;;775330;180;915671;-64
2021/11/18 05:20:06;;;;;;;28.07;17.43;;;;;;;;;;770423;180;924413;-65
2021/11/18 05:22:31;;;;;;;25.67;16.00;;;;;;;;;;772297;180;633246;-64
2021/11/18 05:24:57;;;;;;;21.17;14.30;;;;;;;;;;773922;180;921628;-64
2021/11/18 05:27:24;;;;;;;32.38;17.52;;;;;;;;;;772245;180;919800;-64
2021/11/18 05:29:49;;;;;;;19.20;13.10;;;;;;;;;;767703;180;915807;-64
2021/11/18 05:32:15;;;;;;;24.23;13.03;;;;;;;;;;759811;180;910308;-64
2021/11/18 05:34:41;;;;;;;22.40;13.03;;;;;;;;;;763757;180;1019629;-64
2021/11/18 05:37:07;;;;;;;20.63;13.47;;;;;;;;;;767730;180;912885;-63
2021/11/18 05:39:32;;;;;;;24.00;15.47;;;;;;;;;;768464;180;911262;-64
2021/11/18 05:41:58;;;;;;;27.67;15.53;;;;;;;;;;772328;180;918997;-64
2021/11/18 05:44:24;;;;;;;25.30;15.07;;;;;;;;;;771969;180;627300;-64
2021/11/18 05:46:50;;;;;;;22.80;14.97;;;;;;;;;;768317;180;1534107;-64
2021/11/18 05:49:16;;;;;;;27.30;17.00;;;;;;;;;;772396;180;918255;-66
2021/11/18 05:51:42;;;;;;;22.97;15.27;;;;;;;;;;769689;180;919217;-64
2021/11/18 05:54:08;;;;;;;28.50;17.77;;;;;;;;;;771482;180;919467;-65
2021/11/18 05:56:34;;;;;;;23.23;15.90;;;;;;;;;;771646;178;1480414;-65
2021/11/18 05:59:00;;;;;;;27.67;16.35;;;;;;;;;;773265;179;919439;-65
2021/11/18 06:01:29;;;;;;;25.62;16.33;;;;;;;;;;774733;179;918110;-64
2021/11/18 06:03:54;;;;;;;26.60;16.25;;;;;;;;;;773840;180;918133;-63
2021/11/18 06:06:20;;;;;;;24.10;16.20;;;;;;;;;;775414;179;919733;-64
2021/11/18 06:08:46;;;;;;;30.67;16.63;;;;;;;;;;773797;179;917823;-64
2021/11/18 06:11:12;;;;;;;29.03;17.50;;;;;;;;;;768442;181;918583;-63
2021/11/18 06:13:38;;;;;;;28.33;17.07;;;;;;;;;;776043;180;910764;-63
2021/11/18 06:16:04;;;;;;;27.30;16.17;;;;;;;;;;769989;180;919689;-64
2021/11/18 06:18:29;;;;;;;26.60;16.30;;;;;;;;;;770267;180;919240;-64
2021/11/18 06:20:55;;;;;;;28.53;19.27;;;;;;;;;;776354;180;918533;-63
2021/11/18 06:23:21;;;;;;;32.07;18.77;;;;;;;;;;770027;180;919746;-64
2021/11/18 06:25:47;;;;;;;28.37;17.83;;;;;;;;;;770951;180;918892;-63
2021/11/18 06:28:14;;;;;;;29.65;18.02;;;;;;;;;;769788;180;916364;-63
2021/11/18 06:30:42;;;;;;;29.40;18.20;;;;;;;;;;774805;180;919544;-63
2021/11/18 06:33:08;;;;;;;26.93;18.10;;;;;;;;;;770282;180;916276;-63
2021/11/18 06:35:34;;;;;;;30.63;19.00;;;;;;;;;;765398;180;917542;-63
2021/11/18 06:38:00;;;;;;;26.87;16.63;;;;;;;;;;773346;180;915143;-63
2021/11/18 06:40:26;;;;;;;27.80;18.30;;;;;;;;;;769214;179;913786;-63
2021/11/18 06:42:52;;;;;;;33.30;18.97;;;;;;;;;;763880;180;920106;-64
2021/11/18 06:45:18;;;;;;;33.17;20.00;;;;;;;;;;770831;180;914742;-63
2021/11/18 06:47:43;;;;;;;30.03;17.60;;;;;;;;;;767371;181;916614;-64
2021/11/18 06:50:10;;;;;;;29.87;18.33;;;;;;;;;;763956;181;918844;-64
2021/11/18 06:52:36;;;;;;;29.20;18.07;;;;;;;;;;765849;181;920241;-63
2021/11/18 06:55:01;;;;;;;41.53;20.73;;;;;;;;;;774905;180;987530;-63
2021/11/18 06:57:27;;;;;;;32.77;19.43;;;;;;;;;;762452;179;930723;-63
2021/11/18 06:59:54;;;;;;;34.80;22.43;;;;;;;;;;769112;180;919346;-64
2021/11/18 07:02:19;;;;;;;35.37;22.40;;;;;;;;;;775327;180;919431;-63
2021/11/18 07:04:48;;;;;;;34.43;20.03;;;;;;;;;;768324;180;919125;-63
2021/11/18 07:07:11;;;;;;;35.97;22.20;;;;;;;;;;772336;180;918594;-63
2021/11/18 07:09:37;;;;;;;40.97;23.00;;;;;;;;;;779252;179;919393;-65
2021/11/18 07:12:02;;;;;;;46.63;23.87;;;;;;;;;;776042;179;918552;-63
2021/11/18 07:14:28;;;;;;;38.13;22.00;;;;;;;;;;776000;180;919027;-63
2021/11/18 07:16:54;;;;;;;38.43;22.10;;;;;;;;;;765395;180;918545;-64
2021/11/18 07:19:20;;;;;;;33.67;21.00;;;;;;;;;;773103;180;918032;-65
2021/11/18 07:21:46;;;;;;;35.83;23.60;;;;;;;;;;773109;180;919541;-64
2021/11/18 07:24:12;;;;;;;42.77;22.57;;;;;;;;;;771678;179;919529;-64
2021/11/18 07:26:38;;;;;;;39.10;24.10;;;;;;;;;;774674;180;918969;-64
2021/11/18 07:29:05;;;;;;;42.90;24.93;;;;;;;;;;770775;180;929569;-65
2021/11/18 07:31:30;;;;;;;35.92;22.92;;;;;;;;;;770064;180;919404;-66
2021/11/18 07:33:56;;;;;;;42.60;24.27;;;;;;;;;;774107;179;919075;-64
2021/11/18 07:36:22;;;;;;;36.17;22.80;;;;;;;;;;767109;180;919313;-64
2021/11/18 07:38:48;;;;;;;37.07;23.50;;;;;;;;;;764944;181;919639;-64
2021/11/18 07:41:14;;;;;;;35.13;21.80;;;;;;;;;;765979;180;918990;-64
2021/11/18 07:43:40;;;;;;;32.63;22.10;;;;;;;;;;772222;180;1021151;-65
2021/11/18 07:46:05;;;;;;;35.83;22.27;;;;;;;;;;767038;180;718593;-64
2021/11/18 07:48:31;;;;;;;35.63;22.92;;;;;;;;;;770843;180;918774;-66
2021/11/18 07:50:57;;;;;;;35.50;21.40;;;;;;;;;;774840;180;919327;-64
2021/11/18 07:53:23;;;;;;;33.60;19.60;;;;;;;;;;765615;180;919653;-65
2021/11/18 07:55:49;;;;;;;31.08;19.42;;;;;;;;;;759850;182;918204;-64
2021/11/18 07:58:15;;;;;;;29.87;18.97;;;;;;;;;;772298;181;918533;-65
2021/11/18 08:00:40;;;;;;;36.13;21.67;;;;;;;;;;770038;180;627826;-64
2021/11/18 08:03:06;;;;;;;36.17;22.10;;;;;;;;;;768581;180;629367;-65
2021/11/18 08:05:32;;;;;;;33.23;20.87;;;;;;;;;;771342;179;919245;-64
2021/11/18 08:07:58;;;;;;;41.90;22.70;;;;;;;;;;780798;178;928172;-65
2021/11/18 08:10:24;;;;;;;39.60;23.80;;;;;;;;;;763931;181;918292;-65
2021/11/18 08:12:50;;;;;;;47.37;27.67;;;;;;;;;;767583;180;917787;-64
2021/11/18 08:15:18;;;;;;;57.70;26.47;;;;;;;;;;774953;180;919400;-64
2021/11/18 08:17:41;;;;;;;37.13;19.87;;;;;;;;;;773169;180;918681;-64
2021/11/18 08:20:08;;;;;;;39.83;22.93;;;;;;;;;;770459;179;915559;-65
2021/11/18 08:22:34;;;;;;;35.33;20.10;;;;;;;;;;773872;180;919805;-65
2021/11/18 08:24:59;;;;;;;35.47;21.10;;;;;;;;;;769126;181;920383;-64
2021/11/18 08:27:25;;;;;;;33.67;20.63;;;;;;;;;;774503;179;921950;-65
2021/11/18 08:29:52;;;;;;;36.28;20.90;;;;;;;;;;767984;180;919100;-64
2021/11/18 08:32:18;;;;;;;37.87;20.87;;;;;;;;;;774961;180;918990;-64
2021/11/18 08:34:43;;;;;;;40.03;22.53;;;;;;;;;;763556;180;920721;-64
2021/11/18 08:37:09;;;;;;;41.07;22.83;;;;;;;;;;771055;180;919439;-65
2021/11/18 08:39:35;;;;;;;36.77;20.53;;;;;;;;;;779200;177;923449;-66
2021/11/18 08:42:01;;;;;;;39.00;22.47;;;;;;;;;;774626;180;919214;-64
2021/11/18 08:44:27;;;;;;;34.57;20.60;;;;;;;;;;771374;180;1131184;-64
2021/11/18 08:46:54;;;;;;;33.43;22.33;;;;;;;;;;774982;180;918616;-64
2021/11/18 08:49:19;;;;;;;36.58;20.25;;;;;;;;;;772397;180;919115;-65
2021/11/18 08:51:45;;;;;;;35.10;18.33;;;;;;;;;;761936;180;918231;-67
2021/11/18 08:54:11;;;;;;;29.30;19.73;;;;;;;;;;773425;180;945631;-65
2021/11/18 08:56:36;;;;;;;31.57;18.93;;;;;;;;;;771595;180;919433;-65
2021/11/18 08:59:02;;;;;;;31.13;20.63;;;;;;;;;;766880;179;921008;-65
2021/11/18 09:01:30;;;;;;;27.23;17.70;;;;;;;;;;768688;180;918790;-64
2021/11/18 09:03:54;;;;;;;33.47;20.00;;;;;;;;;;775316;180;918638;-65
2021/11/18 09:06:20;;;;;;;28.50;18.53;;;;;;;;;;769623;180;918993;-64
2021/11/18 09:08:46;;;;;;;27.63;17.87;;;;;;;;;;763336;180;918522;-65
2021/11/18 09:11:11;;;;;;;27.70;16.97;;;;;;;;;;773600;180;919413;-63
2021/11/18 09:13:37;;;;;;;29.70;16.30;;;;;;;;;;771757;179;919874;-63
2021/11/18 09:16:04;;;;;;;32.47;16.27;;;;;;;;;;764415;179;919537;-63
2021/11/18 09:18:29;;;;;;;27.57;16.73;;;;;;;;;;770036;180;919190;-62
2021/11/18 09:20:55;;;;;;;26.43;15.27;;;;;;;;;;770585;180;919716;-63
2021/11/18 09:23:21;;;;;;;24.23;15.33;;;;;;;;;;764754;181;1022244;-63
2021/11/18 09:25:47;;;;;;;19.43;12.90;;;;;;;;;;769826;180;1022119;-62
2021/11/18 09:28:13;;;;;;;20.37;11.97;;;;;;;;;;760981;180;918620;-63
2021/11/18 09:30:39;;;;;;;20.17;12.70;;;;;;;;;;768518;180;920732;-63
2021/11/18 09:33:06;;;;;;;19.50;13.37;;;;;;;;;;769598;180;920172;-61
2021/11/18 09:35:30;;;;;;;15.50;10.70;;;;;;;;;;771948;180;918203;-64
2021/11/18 09:37:56;;;;;;;14.67;10.13;;;;;;;;;;767356;180;920661;-62
2021/11/18 09:40:22;;;;;;;17.73;9.70;;;;;;;;;;770795;180;920196;-64
2021/11/18 09:42:49;;;;;;;19.83;11.60;;;;;;;;;;777564;180;918713;-63
2021/11/18 09:45:15;;;;;;;13.67;9.87;;;;;;;;;;771738;180;914884;-63
2021/11/18 09:47:47;;;;;;;13.57;10.40;;;;;;;;;;769762;180;915927;-64
2021/11/18 09:50:30;;;;;;;16.40;11.13;;;;;;;;;;770856;180;915185;-62
2021/11/18 09:52:58;;;;;;;21.77;11.40;;;;;;;;;;768933;180;1215152;-67
2021/11/18 09:55:28;;;;;;;16.53;10.50;;;;;;;;;;772323;180;919704;-64
2021/11/18 09:58:10;;;;;;;16.13;9.97;;;;;;;;;;767754;180;919398;-64
2021/11/18 10:00:57;;;;;;;14.97;9.83;;;;;;;;;;768697;180;921740;-64
2021/11/18 10:03:38;;;;;;;15.30;10.70;;;;;;;;;;774531;181;919296;-61
2021/11/18 10:06:09;;;;;;;23.53;10.30;;;;;;;;;;772685;179;919650;-64
2021/11/18 10:08:36;;;;;;;17.27;12.43;;;;;;;;;;762723;180;919340;-64
2021/11/18 10:11:22;;;;;;;20.73;11.87;;;;;;;;;;769590;180;919300;-64
2021/11/18 10:13:52;;;;;;;15.53;11.40;;;;;;;;;;768491;180;919425;-64
2021/11/18 10:16:18;;;;;;;24.97;13.00;;;;;;;;;;764805;180;1014040;-64
2021/11/18 10:18:45;;;;;;;21.80;11.47;;;;;;;;;;770552;180;919520;-64
2021/11/18 10:21:12;;;;;;;19.97;11.50;;;;;;;;;;766498;179;919041;-64
2021/11/18 10:23:38;;;;;;;21.90;13.67;;;;;;;;;;762871;180;919410;-63
2021/11/18 10:26:03;;;;;;;21.80;12.77;;;;;;;;;;771546;181;920057;-64
2021/11/18 10:28:29;;;;;;;19.53;11.37;;;;;;;;;;770779;180;995782;-64
2021/11/18 10:31:01;;;;;;;21.43;12.93;;;;;;;;;;768125;181;919887;-65
2021/11/18 10:33:27;;;;;;;24.10;12.30;;;;;;;;;;769358;180;916155;-63
2021/11/18 10:35:57;;;;;;;15.00;10.27;;;;;;;;;;772043;180;915827;-64
2021/11/18 10:38:23;;;;;;;24.13;12.03;;;;;;;;;;768158;179;959527;-64
2021/11/18 10:40:51;;;;;;;20.50;12.60;;;;;;;;;;767066;180;918296;-64
2021/11/18 10:43:17;;;;;;;16.07;11.10;;;;;;;;;;768355;179;915363;-64
2021/11/18 10:45:44;;;;;;;23.70;12.07;;;;;;;;;;773459;179;917820;-63
2021/11/18 10:48:15;;;;;;;20.90;12.03;;;;;;;;;;774348;179;918962;-64
2021/11/18 10:50:42;;;;;;;17.40;12.30;;;;;;;;;;768110;180;919934;-64
2021/11/18 10:53:12;;;;;;;19.90;10.87;;;;;;;;;;774277;180;918424;-64
2021/11/18 10:55:38;;;;;;;18.90;11.73;;;;;;;;;;770803;180;918699;-64
2021/11/18 10:58:07;;;;;;;19.70;11.00;;;;;;;;;;771609;179;958965;-63
2021/11/18 11:00:52;;;;;;;19.13;11.93;;;;;;;;;;777698;179;919714;-66
2021/11/18 11:03:20;;;;;;;22.13;11.98;;;;;;;;;;772541;180;941159;-65
2021/11/18 11:05:46;;;;;;;16.77;11.20;;;;;;;;;;775418;179;883981;-64
2021/11/18 11:08:17;;;;;;;21.47;11.87;;;;;;;;;;766781;179;919059;-64
2021/11/18 11:10:43;;;;;;;19.20;11.77;;;;;;;;;;766192;180;919756;-64
2021/11/18 11:13:19;;;;;;;18.80;12.93;;;;;;;;;;770135;180;919913;-64
2021/11/18 11:16:00;;;;;;;20.08;11.95;;;;;;;;;;769859;180;919878;-64
2021/11/18 11:18:44;;;;;;;22.05;11.77;;;;;;;;;;766466;181;918504;-63
2021/11/18 11:21:21;;;;;;;25.37;11.57;;;;;;;;;;763349;180;919956;-64
2021/11/18 11:23:50;;;;;;;21.70;12.63;;;;;;;;;;762377;181;920044;-63
2021/11/18 11:26:34;;;;;;;22.98;12.18;;;;;;;;;;763203;181;924132;-63
2021/11/18 11:29:02;;;;;;;27.47;15.13;;;;;;;;;;769225;180;918696;-63
2021/11/18 11:31:28;;;;;;;19.67;13.10;;;;;;;;;;771748;179;917494;-63
2021/11/18 11:33:56;;;;;;;21.30;12.00;;;;;;;;;;769916;181;919591;-63
2021/11/18 11:36:22;;;;;;;26.20;15.00;;;;;;;;;;776825;180;916822;-63
2021/11/18 11:38:49;;;;;;;26.97;14.00;;;;;;;;;;769412;180;918922;-63
2021/11/18 11:41:15;;;;;;;26.75;14.40;;;;;;;;;;771303;180;917047;-63
2021/11/18 11:43:57;;;;;;;28.80;15.23;;;;;;;;;;765940;180;1344175;-63
2021/11/18 11:46:39;;;;;;;22.67;12.95;;;;;;;;;;767632;183;919260;-63
2021/11/18 11:49:07;;;;;;;20.70;11.98;;;;;;;;;;752795;179;919965;-64
2021/11/18 11:51:36;;;;;;;18.77;13.37;;;;;;;;;;773969;180;918897;-64
2021/11/18 11:54:02;;;;;;;20.23;12.53;;;;;;;;;;767326;180;918080;-63
2021/11/18 11:56:31;;;;;;;20.40;11.03;;;;;;;;;;768615;179;919692;-63
2021/11/18 11:58:57;;;;;;;22.98;12.00;;;;;;;;;;774853;180;977441;-63
2021/11/18 12:01:27;;;;;;;22.57;12.73;;;;;;;;;;770380;180;908592;-63
2021/11/18 12:03:54;;;;;;;19.13;11.20;;;;;;;;;;770078;180;921962;-63
2021/11/18 12:06:25;;;;;;;19.10;11.90;;;;;;;;;;768658;180;922730;-64
2021/11/18 12:08:51;;;;;;;17.33;11.33;;;;;;;;;;776461;180;916915;-64
2021/11/18 12:11:21;;;;;;;18.83;12.27;;;;;;;;;;769856;180;920542;-64
2021/11/18 12:13:47;;;;;;;19.63;10.80;;;;;;;;;;769644;180;919921;-63
2021/11/18 12:16:14;;;;;;;17.17;11.53;;;;;;;;;;765930;180;916419;-63
2021/11/18 12:18:40;;;;;;;19.33;11.73;;;;;;;;;;773912;181;912134;-64
2021/11/18 12:21:06;;;;;;;22.33;12.37;;;;;;;;;;768689;180;918454;-67
2021/11/18 12:23:37;;;;;;;21.40;13.90;;;;;;;;;;771116;180;918930;-64
2021/11/18 12:26:03;;;;;;;20.83;13.75;;;;;;;;;;771114;179;948325;-64
2021/11/18 12:28:30;;;;;;;21.80;14.50;;;;;;;;;;766713;181;917315;-65
2021/11/18 12:31:12;;;;;;;23.42;12.30;;;;;;;;;;768170;179;918293;-64
2021/11/18 12:33:43;;;;;;;22.40;12.50;;;;;;;;;;765917;180;930482;-65
2021/11/18 12:36:25;;;;;;;16.10;11.07;;;;;;;;;;757501;180;918949;-65
2021/11/18 12:38:50;;;;;;;25.90;12.37;;;;;;;;;;764823;180;919502;-65
2021/11/18 12:41:22;;;;;;;17.77;11.87;;;;;;;;;;772033;180;918805;-65
2021/11/18 12:44:06;;;;;;;26.00;13.40;;;;;;;;;;769164;180;981631;-65
2021/11/18 12:46:48;;;;;;;21.07;12.30;;;;;;;;;;763568;180;917964;-66
2021/11/18 12:49:14;;;;;;;22.80;13.97;;;;;;;;;;769405;180;1509315;-65
2021/11/18 12:51:52;;;;;;;21.67;13.57;;;;;;;;;;766990;180;919094;-66
2021/11/18 12:54:25;;;;;;;23.40;14.13;;;;;;;;;;765594;180;918856;-66
2021/11/18 12:57:09;;;;;;;19.85;13.25;;;;;;;;;;766349;180;919030;-66
2021/11/18 12:59:46;;;;;;;29.20;12.70;;;;;;;;;;768618;180;919243;-67
2021/11/18 13:02:14;;;;;;;22.07;14.77;;;;;;;;;;765545;180;912087;-63
2021/11/18 13:04:40;;;;;;;22.50;13.40;;;;;;;;;;772403;180;918829;-64
2021/11/18 13:07:05;;;;;;;20.80;12.57;;;;;;;;;;772136;179;919296;-64
2021/11/18 13:09:37;;;;;;;23.30;11.53;;;;;;;;;;773188;180;815956;-63
2021/11/18 13:12:03;;;;;;;20.10;12.30;;;;;;;;;;772278;180;626007;-62
2021/11/18 13:14:35;;;;;;;19.70;12.53;;;;;;;;;;776352;180;919592;-63
2021/11/18 13:17:03;;;;;;;17.07;12.90;;;;;;;;;;771334;180;919778;-65
2021/11/18 13:19:35;;;;;;;21.33;11.80;;;;;;;;;;770996;180;918979;-66
2021/11/18 13:22:22;;;;;;;22.17;13.33;;;;;;;;;;770944;180;919255;-64
2021/11/18 13:25:04;;;;;;;18.17;10.90;;;;;;;;;;771400;180;919013;-64
2021/11/18 13:27:32;;;;;;;20.27;11.33;;;;;;;;;;769414;181;1010419;-64
2021/11/18 13:29:58;;;;;;;19.93;11.70;;;;;;;;;;774962;180;1018556;-64
2021/11/18 13:32:23;;;;;;;24.23;11.67;;;;;;;;;;771592;180;919048;-64
2021/11/18 13:34:54;;;;;;;21.03;12.50;;;;;;;;;;769171;180;633222;-64
2021/11/18 13:37:20;;;;;;;18.83;11.27;;;;;;;;;;768891;180;922768;-64
2021/11/18 13:39:47;;;;;;;23.13;10.50;;;;;;;;;;773782;180;919109;-63
2021/11/18 13:42:15;;;;;;;21.40;12.20;;;;;;;;;;770133;180;919192;-64
2021/11/18 13:44:41;;;;;;;21.30;12.67;;;;;;;;;;768101;180;928298;-65
2021/11/18 13:47:07;;;;;;;17.40;11.23;;;;;;;;;;772813;180;919676;-65
2021/11/18 13:49:33;;;;;;;16.77;11.93;;;;;;;;;;769760;180;919954;-64
2021/11/18 13:52:01;;;;;;;22.67;10.97;;;;;;;;;;764174;181;920464;-65
2021/11/18 13:54:29;;;;;;;16.07;10.87;;;;;;;;;;767601;180;919741;-64
2021/11/18 13:56:55;;;;;;;20.50;12.33;;;;;;;;;;776493;180;919400;-64
2021/11/18 13:59:24;;;;;;;18.60;12.27;;;;;;;;;;768404;180;919333;-65
2021/11/18 14:01:50;;;;;;;20.47;12.10;;;;;;;;;;764395;180;920248;-63
2021/11/18 14:04:16;;;;;;;26.13;11.90;;;;;;;;;;775956;180;1065205;-64